Time;durP1;ratioP1;P1;durP2;ratioP2;P2;SDS_P1;SDS_P2;PMS_P1;PMS_P2;Temp;Humidity;BMP_temperature;BMP_pressure;BME280_temperature;BME280_humidity;BME280_pressure;Samples;Min_cycle;Max_cycle;Signal;HPM_P1;HPM_P2
2022/03/24 00:01:56;;;;;;;54.83;39.75;;;9.80;68.90;;;;;;4929126;29;20059;-67
2022/03/24 00:04:22;;;;;;;50.78;39.50;;;9.70;68.80;;;;;;4931059;29;20448;-67
2022/03/24 00:06:48;;;;;;;61.05;42.92;;;9.70;68.80;;;;;;4932215;29;20063;-67
2022/03/24 00:09:14;;;;;;;53.65;40.88;;;9.70;68.90;;;;;;4924638;29;20036;-68
2022/03/24 00:11:40;;;;;;;54.83;41.92;;;9.70;68.80;;;;;;4920799;29;20055;-68
2022/03/24 00:14:06;;;;;;;55.95;41.28;;;9.70;69.00;;;;;;4931438;29;20070;-67
2022/03/24 00:16:32;;;;;;;60.70;44.35;;;9.60;68.90;;;;;;4932086;29;20051;-67
2022/03/24 00:18:59;;;;;;;57.08;44.17;;;9.60;68.70;;;;;;4925713;29;20044;-67
2022/03/24 00:21:25;;;;;;;58.75;43.00;;;9.60;68.70;;;;;;4930678;29;20528;-68
2022/03/24 03:02:52;;;;;;;79.70;55.15;;;8.20;72.60;;;;;;3303295;28;22041;-69
2022/03/24 03:05:18;;;;;;;84.82;56.55;;;8.20;72.60;;;;;;4930023;29;20052;-66
2022/03/24 03:07:44;;;;;;;81.68;55.63;;;8.10;72.70;;;;;;4927859;29;20476;-66
2022/03/24 03:10:11;;;;;;;87.63;56.58;;;8.10;72.70;;;;;;4914185;29;20135;-66
2022/03/24 03:12:36;;;;;;;78.43;53.55;;;8.10;72.90;;;;;;4928075;29;20040;-67
2022/03/24 03:15:03;;;;;;;79.30;56.65;;;8.00;73.10;;;;;;4928587;29;20058;-66
2022/03/24 03:17:29;;;;;;;79.28;54.70;;;8.10;73.30;;;;;;4930367;29;20051;-66
2022/03/24 03:19:55;;;;;;;84.95;57.88;;;8.10;73.30;;;;;;4932903;29;20405;-67
2022/03/24 03:22:21;;;;;;;82.00;57.15;;;8.10;73.40;;;;;;4920915;29;20880;-67
2022/03/24 03:24:46;;;;;;;79.85;55.75;;;8.10;73.50;;;;;;4923044;29;20047;-67
2022/03/24 03:27:13;;;;;;;80.78;54.22;;;8.10;73.40;;;;;;4932231;29;20055;-67
2022/03/24 03:29:38;;;;;;;80.50;54.45;;;8.10;73.50;;;;;;4930009;29;20048;-67
2022/03/24 03:32:04;;;;;;;81.85;58.88;;;8.10;73.70;;;;;;4932068;29;20044;-68
2022/03/24 03:34:31;;;;;;;82.95;57.42;;;8.20;74.00;;;;;;4932007;29;20054;-68
2022/03/24 03:36:59;;;;;;;79.50;57.60;;;8.10;74.00;;;;;;4928588;29;20081;-67
2022/03/24 03:39:25;;;;;;;77.13;56.25;;;8.10;74.00;;;;;;4931659;29;20059;-67
2022/03/24 03:41:51;;;;;;;90.63;58.83;;;8.10;74.20;;;;;;4931627;29;20050;-67
2022/03/24 03:44:17;;;;;;;79.30;55.50;;;8.10;74.40;;;;;;4931047;29;20401;-67
2022/03/24 03:46:44;;;;;;;78.97;56.08;;;8.10;74.50;;;;;;4925285;29;20051;-66
2022/03/24 03:49:10;;;;;;;82.20;57.83;;;8.10;74.70;;;;;;4930826;29;20043;-67
2022/03/24 03:51:37;;;;;;;77.38;54.70;;;8.10;74.60;;;;;;4931050;29;20043;-67
2022/03/24 03:54:10;;;;;;;71.65;52.90;;;8.10;74.60;;;;;;4928479;29;20505;-67
2022/03/24 03:56:36;;;;;;;76.05;53.70;;;8.10;74.70;;;;;;4930536;29;20519;-67
2022/03/24 03:59:03;;;;;;;74.32;55.30;;;8.10;74.70;;;;;;4931014;29;20122;-67
2022/03/24 04:01:30;;;;;;;77.07;55.70;;;8.10;74.90;;;;;;4929192;29;20622;-67
2022/03/24 04:03:56;;;;;;;77.43;54.92;;;8.10;74.90;;;;;;4930509;29;21856;-67
2022/03/24 04:06:24;;;;;;;80.43;56.22;;;8.10;74.90;;;;;;4927432;29;20114;-67
2022/03/24 04:08:50;;;;;;;77.13;55.20;;;8.10;74.90;;;;;;4931215;29;20075;-67
2022/03/24 04:11:16;;;;;;;84.10;58.08;;;8.10;74.90;;;;;;4930867;29;20450;-66
2022/03/24 04:13:42;;;;;;;79.85;54.03;;;8.00;74.90;;;;;;4931244;29;20405;-66
2022/03/24 04:16:12;;;;;;;78.20;56.58;;;8.00;75.10;;;;;;4927686;29;20055;-67
2022/03/24 04:18:40;;;;;;;79.00;53.47;;;7.90;75.10;;;;;;4930112;29;20561;-67
2022/03/24 04:21:07;;;;;;;74.65;54.00;;;7.90;75.30;;;;;;4930576;29;20047;-67
2022/03/24 04:23:34;;;;;;;80.57;55.70;;;7.90;75.50;;;;;;4929716;29;20430;-66
2022/03/24 04:26:00;;;;;;;81.53;56.60;;;7.90;75.60;;;;;;4928093;29;20052;-68
2022/03/24 04:28:25;;;;;;;82.82;57.88;;;7.90;75.70;;;;;;4931431;29;20050;-67
2022/03/24 04:30:51;;;;;;;82.93;57.60;;;7.90;75.70;;;;;;4927219;29;20778;-67
2022/03/24 04:33:17;;;;;;;84.75;59.78;;;7.80;75.80;;;;;;4930216;29;20107;-67
2022/03/24 04:35:42;;;;;;;83.80;58.97;;;7.90;75.90;;;;;;4928308;29;20472;-67
2022/03/24 04:38:08;;;;;;;83.78;58.17;;;7.80;76.00;;;;;;4930093;29;20118;-67
2022/03/24 04:40:34;;;;;;;87.22;60.53;;;7.90;76.00;;;;;;4930946;29;20051;-66
2022/03/24 04:43:00;;;;;;;76.45;55.90;;;7.90;76.10;;;;;;4931621;29;20071;-68
2022/03/24 04:45:32;;;;;;;86.50;61.90;;;7.80;76.10;;;;;;4930337;29;20536;-67
2022/03/24 04:47:58;;;;;;;92.28;63.53;;;7.90;76.10;;;;;;4927103;29;20100;-67
2022/03/24 04:50:24;;;;;;;88.43;63.95;;;7.90;76.20;;;;;;4913069;29;20472;-67
2022/03/24 04:52:50;;;;;;;91.82;64.22;;;7.90;76.20;;;;;;4917250;29;20039;-68
2022/03/24 04:55:16;;;;;;;94.43;65.75;;;7.80;76.20;;;;;;4934313;29;20523;-67
2022/03/24 04:57:42;;;;;;;95.35;65.68;;;7.80;76.40;;;;;;4933975;29;20047;-67
2022/03/24 05:00:09;;;;;;;97.25;63.90;;;7.80;76.40;;;;;;4916750;29;20048;-67
2022/03/24 05:02:35;;;;;;;93.55;62.63;;;7.80;76.60;;;;;;4916714;29;20052;-66
2022/03/24 05:05:00;;;;;;;98.30;66.82;;;7.70;76.90;;;;;;4917333;29;20056;-66
2022/03/24 05:07:27;;;;;;;89.32;61.22;;;7.70;76.90;;;;;;4935212;29;20059;-67
2022/03/24 05:09:55;;;;;;;85.90;60.38;;;7.70;76.90;;;;;;4917992;29;20500;-66
2022/03/24 05:12:21;;;;;;;87.78;62.67;;;7.70;77.00;;;;;;4916416;29;20446;-66
2022/03/24 05:14:47;;;;;;;87.70;62.58;;;7.70;77.10;;;;;;4931860;29;20145;-66
2022/03/24 05:17:15;;;;;;;86.70;61.28;;;7.70;77.20;;;;;;4935296;29;20375;-67
2022/03/24 05:19:40;;;;;;;97.25;66.60;;;7.70;77.30;;;;;;4934515;29;20056;-66
2022/03/24 05:22:06;;;;;;;103.32;69.18;;;7.70;77.30;;;;;;4934850;29;20159;-66
2022/03/24 05:24:32;;;;;;;100.32;66.13;;;7.70;77.30;;;;;;4933381;29;20044;-66
2022/03/24 05:26:57;;;;;;;99.50;69.20;;;7.70;77.30;;;;;;4928775;29;20048;-67
2022/03/24 05:29:23;;;;;;;101.88;69.90;;;7.70;77.30;;;;;;4929490;29;20051;-67
2022/03/24 05:31:49;;;;;;;100.95;70.78;;;7.70;77.30;;;;;;4920350;29;20046;-66
2022/03/24 05:34:14;;;;;;;102.07;70.38;;;7.80;77.50;;;;;;4928057;29;20036;-67
2022/03/24 05:36:40;;;;;;;107.82;71.30;;;7.80;77.50;;;;;;4930165;29;20058;-67
2022/03/24 05:39:06;;;;;;;105.53;69.40;;;7.80;77.60;;;;;;4922641;29;20040;-67
2022/03/24 05:41:31;;;;;;;107.65;73.55;;;7.80;77.70;;;;;;4926145;29;20055;-67
2022/03/24 05:44:03;;;;;;;92.97;63.70;;;7.70;77.80;;;;;;4933669;29;20043;-66
2022/03/24 05:46:40;;;;;;;104.20;71.45;;;7.80;78.00;;;;;;4921242;29;20497;-66
2022/03/24 05:49:06;;;;;;;94.50;66.13;;;7.80;78.00;;;;;;4923086;29;20612;-67
2022/03/24 05:51:33;;;;;;;93.95;66.20;;;7.70;78.00;;;;;;4914878;29;20044;-67
2022/03/24 05:53:58;;;;;;;97.93;70.07;;;7.70;78.30;;;;;;4917184;29;20132;-65
2022/03/24 05:56:24;;;;;;;93.47;64.38;;;7.70;78.30;;;;;;4918292;29;20041;-66
2022/03/24 05:58:50;;;;;;;96.13;67.22;;;7.80;78.20;;;;;;4928079;29;20411;-65
2022/03/24 06:01:16;;;;;;;93.15;64.25;;;7.80;78.30;;;;;;4929642;29;20062;-65
2022/03/24 06:03:47;;;;;;;87.43;61.92;;;7.80;78.20;;;;;;4922221;29;20848;-65
2022/03/24 06:06:13;;;;;;;96.00;62.10;;;7.90;78.30;;;;;;4914262;29;20650;-65
2022/03/24 06:08:43;;;;;;;99.72;68.43;;;7.80;78.30;;;;;;4929088;29;20130;-66
2022/03/24 06:11:13;;;;;;;98.85;67.60;;;7.80;78.30;;;;;;4924726;29;20130;-66
2022/03/24 06:13:40;;;;;;;94.68;64.82;;;7.90;78.30;;;;;;4917122;29;20044;-68
2022/03/24 06:16:06;;;;;;;92.47;65.47;;;7.90;78.40;;;;;;4920931;29;20112;-66
2022/03/24 06:18:32;;;;;;;97.05;67.07;;;7.90;78.40;;;;;;4927488;29;20044;-66
2022/03/24 06:20:59;;;;;;;95.90;65.55;;;8.00;78.50;;;;;;4935404;29;20523;-66
2022/03/24 06:23:26;;;;;;;92.60;63.35;;;8.00;78.40;;;;;;4924449;29;20083;-66
2022/03/24 06:25:51;;;;;;;92.53;64.20;;;8.00;78.30;;;;;;4919362;29;20354;-66
2022/03/24 06:28:17;;;;;;;95.63;63.00;;;8.00;78.40;;;;;;4932756;29;20051;-67
2022/03/24 06:30:42;;;;;;;88.53;62.17;;;8.00;78.40;;;;;;4933109;29;20039;-66
2022/03/24 06:33:09;;;;;;;90.30;63.78;;;8.00;78.50;;;;;;4917932;29;20067;-67
2022/03/24 06:35:34;;;;;;;97.82;68.53;;;8.00;78.60;;;;;;4938536;29;20050;-67
2022/03/24 06:38:00;;;;;;;100.00;66.82;;;8.00;78.60;;;;;;4941679;29;20051;-67
2022/03/24 06:40:26;;;;;;;95.07;64.63;;;8.10;78.60;;;;;;4916487;29;20048;-68
2022/03/24 06:42:52;;;;;;;95.90;63.58;;;8.10;78.70;;;;;;4943228;28;20055;-67
2022/03/24 06:45:18;;;;;;;95.97;66.32;;;8.10;78.70;;;;;;4935335;28;20054;-67
2022/03/24 06:47:44;;;;;;;93.38;64.82;;;8.10;78.90;;;;;;4945200;28;20044;-67
2022/03/24 06:50:12;;;;;;;91.93;62.30;;;8.10;78.90;;;;;;4930506;29;20043;-67
2022/03/24 06:52:39;;;;;;;96.10;64.47;;;8.10;79.00;;;;;;4932235;29;20118;-67
2022/03/24 06:55:05;;;;;;;93.90;64.95;;;8.20;79.10;;;;;;4923381;29;20565;-67
2022/03/24 06:57:31;;;;;;;89.70;61.88;;;8.20;79.20;;;;;;4926034;29;20555;-67
2022/03/24 06:59:57;;;;;;;93.43;64.10;;;8.30;79.10;;;;;;4927206;29;20135;-66
2022/03/24 07:02:23;;;;;;;94.07;63.55;;;8.30;79.20;;;;;;4911462;29;20464;-67
2022/03/24 07:04:49;;;;;;;95.35;64.15;;;8.40;79.20;;;;;;4919176;29;20058;-67
2022/03/24 07:07:15;;;;;;;89.72;62.20;;;8.40;79.10;;;;;;4929588;29;20048;-67
2022/03/24 07:09:40;;;;;;;101.32;65.25;;;8.30;79.10;;;;;;4928016;29;20456;-67
2022/03/24 07:12:06;;;;;;;92.60;64.07;;;8.40;79.30;;;;;;4919876;29;20135;-67
2022/03/24 07:14:32;;;;;;;96.25;66.65;;;8.40;79.60;;;;;;4923262;29;20162;-67
2022/03/24 07:16:57;;;;;;;95.53;65.53;;;8.50;79.60;;;;;;4925130;29;20032;-67
2022/03/24 07:19:23;;;;;;;41.13;29.02;;;8.60;79.40;;;;;;4913340;29;20832;-67
2022/03/24 07:21:49;;;;;;;105.88;68.30;;;8.60;79.60;;;;;;4928984;29;20039;-66
2022/03/24 07:24:15;;;;;;;98.78;66.65;;;8.80;79.60;;;;;;4923855;29;20521;-66
2022/03/24 07:26:41;;;;;;;92.07;62.13;;;8.90;79.10;;;;;;4922435;29;20043;-67
2022/03/24 07:29:06;;;;;;;93.72;66.43;;;8.90;79.10;;;;;;4943194;29;20046;-67
2022/03/24 07:31:33;;;;;;;93.30;61.75;;;9.00;79.10;;;;;;4951335;29;20114;-66
2022/03/24 07:33:59;;;;;;;96.78;65.13;;;9.00;79.00;;;;;;4951486;29;20075;-67
2022/03/24 07:36:25;;;;;;;88.60;60.80;;;9.10;78.90;;;;;;4951125;29;20047;-66
2022/03/24 07:38:52;;;;;;;88.15;61.85;;;9.10;78.80;;;;;;4941416;29;20465;-67
2022/03/24 07:41:17;;;;;;;48.15;32.40;;;9.10;78.70;;;;;;4931914;29;20043;-73
2022/03/24 07:43:44;;;;;;;90.53;62.60;;;9.20;79.50;;;;;;4903460;29;20044;-66
2022/03/24 07:46:10;;;;;;;86.13;60.53;;;9.50;79.10;;;;;;4925629;29;20130;-68
2022/03/24 07:48:36;;;;;;;89.75;58.65;;;9.60;78.40;;;;;;4924529;29;20122;-67
2022/03/24 07:51:01;;;;;;;82.20;57.67;;;9.60;77.90;;;;;;4931879;29;20035;-68
2022/03/24 07:53:59;;;;;;;90.20;59.45;;;9.60;77.50;;;;;;4919607;29;20072;-67
2022/03/24 07:56:25;;;;;;;70.90;47.55;;;9.60;77.20;;;;;;4926767;29;20043;-66
2022/03/24 07:58:52;;;;;;;70.63;47.28;;;9.60;77.30;;;;;;4926527;29;20052;-65
2022/03/24 08:01:30;;;;;;;67.00;47.47;;;10.00;77.70;;;;;;4924067;29;20043;-65
2022/03/24 08:03:58;;;;;;;80.65;56.28;;;10.60;77.10;;;;;;4915243;29;20569;-67
2022/03/24 08:06:24;;;;;;;81.43;56.53;;;10.70;76.20;;;;;;4894765;29;21718;-67
2022/03/24 08:08:49;;;;;;;84.15;56.67;;;10.70;75.40;;;;;;4903429;29;20131;-68
2022/03/24 08:11:15;;;;;;;82.75;57.35;;;10.60;75.00;;;;;;4898617;29;20060;-66
2022/03/24 08:13:40;;;;;;;92.68;59.65;;;10.60;74.90;;;;;;4893555;29;20049;-68
2022/03/24 08:16:06;;;;;;;86.95;57.75;;;10.60;75.10;;;;;;4907288;29;20055;-66
2022/03/24 08:18:32;;;;;;;75.90;53.58;;;10.60;75.20;;;;;;4901910;29;20079;-66
2022/03/24 08:20:58;;;;;;;78.70;57.08;;;10.60;75.20;;;;;;4899961;29;20032;-66
2022/03/24 08:23:24;;;;;;;84.35;56.00;;;10.60;75.20;;;;;;4899410;29;20039;-66
2022/03/24 08:25:51;;;;;;;76.43;52.70;;;10.60;75.00;;;;;;4899266;29;21164;-66
2022/03/24 08:28:17;;;;;;;79.03;55.22;;;10.60;74.40;;;;;;4916229;29;20056;-65
2022/03/24 08:30:44;;;;;;;79.10;58.90;;;10.60;74.00;;;;;;4912815;29;20515;-66
2022/03/24 08:33:10;;;;;;;78.40;55.97;;;10.70;74.10;;;;;;4908623;29;20051;-65
2022/03/24 08:35:37;;;;;;;78.00;55.85;;;10.80;74.30;;;;;;4911142;29;20048;-67
2022/03/24 08:38:03;;;;;;;77.60;54.47;;;10.90;74.50;;;;;;4910161;29;20580;-65
2022/03/24 08:40:29;;;;;;;78.78;56.20;;;11.00;74.60;;;;;;4907514;29;20060;-64
2022/03/24 08:42:55;;;;;;;76.88;54.85;;;11.00;74.60;;;;;;4902429;29;20827;-64
2022/03/24 08:45:21;;;;;;;71.85;51.42;;;11.10;74.50;;;;;;4907215;29;20454;-64
2022/03/24 08:47:47;;;;;;;76.07;53.20;;;11.10;74.20;;;;;;4903637;29;20094;-63
2022/03/24 08:50:13;;;;;;;73.82;51.60;;;11.10;74.00;;;;;;4916130;29;20405;-65
2022/03/24 08:52:41;;;;;;;78.40;54.30;;;11.20;73.70;;;;;;4906740;29;20427;-64
2022/03/24 08:55:07;;;;;;;68.35;48.63;;;11.30;73.70;;;;;;4910016;29;20055;-66
2022/03/24 08:57:34;;;;;;;76.45;53.72;;;11.30;73.60;;;;;;4908985;29;20040;-63
2022/03/24 09:00:03;;;;;;;73.72;51.63;;;11.50;73.60;;;;;;4916181;29;20434;-63
2022/03/24 09:02:30;;;;;;;72.90;51.45;;;11.50;73.50;;;;;;4911928;29;20052;-65
2022/03/24 09:04:56;;;;;;;66.82;50.03;;;11.60;73.30;;;;;;4912072;29;20064;-63
2022/03/24 09:07:22;;;;;;;71.07;49.85;;;11.60;73.00;;;;;;4929034;29;20110;-64
2022/03/24 09:09:47;;;;;;;74.47;51.80;;;11.70;72.80;;;;;;4927448;29;20052;-64
2022/03/24 09:12:13;;;;;;;70.38;50.30;;;11.80;72.60;;;;;;4926502;29;20134;-64
2022/03/24 09:14:40;;;;;;;68.32;49.17;;;11.90;72.50;;;;;;4919761;29;20036;-65
2022/03/24 09:17:07;;;;;;;66.22;48.05;;;11.90;72.20;;;;;;4919800;29;20505;-64
2022/03/24 09:19:33;;;;;;;70.63;49.28;;;12.10;72.60;;;;;;4909996;29;20139;-64
2022/03/24 09:22:04;;;;;;;68.95;47.05;;;12.40;71.70;;;;;;4919994;29;20055;-65
2022/03/24 09:24:30;;;;;;;68.22;46.30;;;12.50;70.70;;;;;;4920527;29;20067;-65
2022/03/24 09:26:56;;;;;;;66.68;46.55;;;12.50;70.40;;;;;;4927049;29;20545;-66
2022/03/24 09:29:22;;;;;;;61.20;44.20;;;12.50;69.80;;;;;;4931615;29;20040;-67
2022/03/24 09:31:48;;;;;;;67.45;44.78;;;12.60;69.70;;;;;;4930912;29;20432;-66
2022/03/24 09:34:13;;;;;;;64.68;43.95;;;12.60;69.60;;;;;;4931005;29;20091;-66
2022/03/24 09:36:40;;;;;;;62.97;45.20;;;12.70;69.50;;;;;;4924447;29;20546;-66
2022/03/24 09:39:07;;;;;;;62.75;45.45;;;12.80;69.30;;;;;;4925111;29;20476;-67
2022/03/24 09:41:35;;;;;;;64.43;45.70;;;12.80;69.10;;;;;;4923065;29;20071;-67
2022/03/24 09:44:01;;;;;;;58.50;43.30;;;12.90;68.90;;;;;;4915265;29;20075;-65
2022/03/24 09:46:28;;;;;;;66.82;44.95;;;13.00;68.60;;;;;;4931534;29;20079;-66
2022/03/24 09:48:53;;;;;;;59.08;41.55;;;13.00;68.20;;;;;;4918791;29;20442;-65
2022/03/24 09:51:21;;;;;;;62.53;42.90;;;13.10;68.00;;;;;;4932242;29;20046;-66
2022/03/24 09:53:46;;;;;;;71.82;44.22;;;13.10;67.60;;;;;;4931403;29;20421;-66
2022/03/24 09:56:12;;;;;;;58.15;41.38;;;13.10;67.50;;;;;;4920976;29;20052;-65
2022/03/24 09:58:38;;;;;;;59.53;41.20;;;13.20;66.90;;;;;;4924602;29;20074;-65
2022/03/24 10:01:03;;;;;;;57.65;40.45;;;13.30;66.40;;;;;;4921195;29;20148;-64
2022/03/24 10:03:29;;;;;;;59.72;41.42;;;13.30;66.30;;;;;;4918904;29;20112;-65
2022/03/24 10:06:02;;;;;;;60.60;42.10;;;13.40;66.20;;;;;;4914703;29;20127;-65
2022/03/24 10:08:29;;;;;;;54.80;39.55;;;13.40;65.90;;;;;;4923031;29;20079;-65
2022/03/24 10:11:00;;;;;;;57.97;40.88;;;13.50;65.50;;;;;;4924894;29;20044;-65
2022/03/24 10:13:46;;;;;;;61.15;40.35;;;13.60;65.20;;;;;;4914414;29;20075;-65
2022/03/24 10:16:33;;;;;;;62.67;40.58;;;13.60;63.70;;;;;;4918219;29;20055;-65
2022/03/24 10:19:07;;;;;;;57.03;39.90;;;13.70;64.20;;;;;;4915615;29;20094;-65
2022/03/24 10:21:37;;;;;;;57.28;39.47;;;13.70;63.40;;;;;;4897420;29;20048;-65
2022/03/24 10:24:22;;;;;;;60.78;38.85;;;13.90;62.30;;;;;;4897198;29;20296;-65
2022/03/24 10:27:00;;;;;;;55.83;38.55;;;13.90;61.80;;;;;;4914281;29;20051;-65
2022/03/24 10:29:27;;;;;;;55.17;38.40;;;14.00;61.50;;;;;;4916401;29;20044;-66
2022/03/24 10:31:59;;;;;;;51.60;37.50;;;14.00;61.30;;;;;;4934772;29;20043;-66
2022/03/24 10:34:36;;;;;;;60.08;38.42;;;14.10;61.30;;;;;;4952051;29;20066;-64
2022/03/24 10:37:20;;;;;;;50.42;33.88;;;14.10;61.00;;;;;;4933785;29;20056;-68
2022/03/24 10:39:59;;;;;;;56.00;35.78;;;14.20;59.90;;;;;;4916329;29;20044;-71
2022/03/24 10:42:27;;;;;;;57.47;35.17;;;14.30;58.90;;;;;;4913881;29;20051;-65
2022/03/24 10:45:18;;;;;;;52.42;35.65;;;14.30;58.80;;;;;;4919393;29;20052;-66
2022/03/24 10:48:04;;;;;;;52.65;35.30;;;14.50;58.10;;;;;;4917402;29;20515;-65
2022/03/24 10:50:39;;;;;;;54.83;34.50;;;14.60;57.60;;;;;;4923643;29;20054;-64
2022/03/24 10:53:12;;;;;;;57.63;34.22;;;14.60;57.40;;;;;;4910386;29;20048;-64
2022/03/24 10:55:44;;;;;;;49.33;34.88;;;14.60;56.80;;;;;;4931424;29;20047;-65
2022/03/24 10:58:17;;;;;;;52.17;35.95;;;14.60;56.80;;;;;;4899285;29;20051;-66
2022/03/24 11:00:45;;;;;;;53.75;35.17;;;14.70;56.50;;;;;;4923998;29;20123;-66
2022/03/24 11:03:11;;;;;;;54.88;34.03;;;14.80;56.60;;;;;;4916401;29;20466;-64
2022/03/24 11:05:38;;;;;;;29.67;20.83;;;14.80;55.90;;;;;;4917647;29;20115;-68
2022/03/24 11:08:05;;;;;;;48.42;31.63;;;15.00;57.20;;;;;;4919129;29;20409;-66
2022/03/24 11:10:33;;;;;;;44.85;30.48;;;15.10;56.50;;;;;;4925111;29;20040;-65
2022/03/24 11:13:01;;;;;;;47.05;31.63;;;15.10;55.70;;;;;;4925703;29;20063;-66
2022/03/24 11:15:28;;;;;;;44.45;30.65;;;15.10;54.80;;;;;;4932246;29;20409;-65
2022/03/24 11:17:53;;;;;;;44.25;31.58;;;15.20;54.10;;;;;;4922909;29;20422;-65
2022/03/24 11:20:54;;;;;;;44.95;30.60;;;15.20;53.60;;;;;;4912881;29;20048;-65
2022/03/24 11:23:19;;;;;;;52.80;33.08;;;15.30;52.90;;;;;;4894801;29;20054;-66
2022/03/24 11:25:46;;;;;;;47.03;31.98;;;15.30;53.50;;;;;;4922769;29;20040;-65
2022/03/24 11:28:14;;;;;;;48.78;32.78;;;15.30;52.50;;;;;;4911221;29;20163;-65
2022/03/24 11:30:41;;;;;;;58.33;34.25;;;15.40;52.90;;;;;;4927611;29;20058;-66
2022/03/24 11:33:08;;;;;;;56.95;36.33;;;15.50;52.80;;;;;;4924976;29;20047;-65
2022/03/24 11:35:35;;;;;;;59.25;36.75;;;15.50;52.50;;;;;;4935797;29;20452;-64
2022/03/24 11:38:04;;;;;;;52.28;35.30;;;15.60;52.30;;;;;;4936190;29;20111;-65
2022/03/24 11:40:32;;;;;;;52.28;38.03;;;15.60;52.10;;;;;;4924634;29;20485;-64
2022/03/24 11:43:20;;;;;;;54.95;36.92;;;15.60;52.40;;;;;;4927284;29;20527;-64
2022/03/24 11:45:49;;;;;;;52.58;37.40;;;15.60;52.20;;;;;;4927939;29;20050;-64
2022/03/24 11:48:15;;;;;;;60.10;38.80;;;15.60;52.80;;;;;;4923466;29;20048;-65
2022/03/24 11:50:45;;;;;;;47.42;32.88;;;15.70;52.30;;;;;;4913010;29;20126;-65
2022/03/24 11:53:16;;;;;;;51.70;33.47;;;15.70;51.60;;;;;;4925280;29;20062;-63
2022/03/24 11:56:03;;;;;;;50.70;33.90;;;15.70;51.40;;;;;;4928116;29;20420;-64
2022/03/24 11:58:35;;;;;;;57.92;36.00;;;15.80;51.60;;;;;;4928266;29;20126;-64
2022/03/24 12:01:19;;;;;;;54.53;31.88;;;15.80;52.10;;;;;;4919023;29;20039;-65
2022/03/24 12:03:49;;;;;;;52.08;35.25;;;15.80;51.30;;;;;;4923632;29;20062;-65
2022/03/24 12:06:17;;;;;;;60.65;33.67;;;15.80;52.10;;;;;;4915171;29;20094;-66
2022/03/24 12:09:01;;;;;;;54.03;34.83;;;15.90;51.80;;;;;;4926276;29;20234;-66
2022/03/24 12:11:32;;;;;;;50.05;32.70;;;16.00;51.40;;;;;;4914091;29;20409;-64
2022/03/24 12:13:59;;;;;;;53.05;34.38;;;16.00;51.50;;;;;;4915527;29;20055;-66
2022/03/24 12:16:27;;;;;;;50.88;31.00;;;16.00;51.70;;;;;;4912488;29;20063;-65
2022/03/24 12:18:53;;;;;;;48.83;32.33;;;16.10;51.40;;;;;;4916300;29;20048;-65
2022/03/24 12:21:26;;;;;;;49.08;29.77;;;16.10;51.20;;;;;;4931554;29;20044;-65
2022/03/24 12:24:09;;;;;;;51.97;31.45;;;16.20;50.80;;;;;;4931684;29;20054;-67
2022/03/24 12:26:47;;;;;;;54.90;31.13;;;16.20;50.10;;;;;;4920409;29;20095;-65
2022/03/24 12:29:12;;;;;;;54.63;28.80;;;16.30;51.00;;;;;;4931940;29;20048;-65
2022/03/24 12:32:01;;;;;;;46.92;27.17;;;16.40;50.80;;;;;;4931818;29;20107;-65
2022/03/24 12:34:44;;;;;;;39.83;21.08;;;16.40;49.30;;;;;;4931080;29;20568;-65
2022/03/24 12:37:25;;;;;;;39.60;21.88;;;16.40;48.60;;;;;;4919821;29;20036;-65
2022/03/24 12:40:09;;;;;;;37.75;21.45;;;16.50;47.80;;;;;;4895945;29;20641;-65
2022/03/24 12:42:54;;;;;;;39.30;21.73;;;16.50;47.40;;;;;;4912342;29;20425;-65
2022/03/24 12:45:22;;;;;;;35.10;19.83;;;16.50;47.60;;;;;;4906343;29;20074;-65
2022/03/24 12:47:49;;;;;;;41.55;21.95;;;16.50;48.00;;;;;;4921233;29;20059;-65
2022/03/24 12:50:20;;;;;;;43.30;23.92;;;16.60;47.30;;;;;;4920704;29;20051;-65
2022/03/24 12:52:49;;;;;;;;;;;16.60;47.00;;;;;;4931488;29;20048;-65
2022/03/24 12:55:28;;;;;;;39.33;25.23;;;16.60;46.70;;;;;;4918345;29;19927;-64
2022/03/24 12:57:56;;;;;;;48.20;24.60;;;16.60;47.30;;;;;;4918621;29;20457;-64
2022/03/24 13:00:30;;;;;;;46.38;24.95;;;16.60;47.00;;;;;;4913683;29;20083;-65
2022/03/24 13:02:57;;;;;;;41.22;23.77;;;16.60;46.70;;;;;;4931185;29;20043;-65
2022/03/24 13:05:28;;;;;;;36.92;23.80;;;16.70;46.40;;;;;;4922370;29;20055;-75
2022/03/24 13:07:55;;;;;;;36.80;23.00;;;16.80;46.20;;;;;;4912786;29;20123;-66
2022/03/24 13:10:25;;;;;;;44.70;26.67;;;16.80;46.60;;;;;;4912146;29;20059;-66
2022/03/24 13:12:58;;;;;;;41.80;24.17;;;16.80;46.30;;;;;;4931629;29;20079;-67
2022/03/24 13:15:35;;;;;;;37.20;24.38;;;16.90;46.10;;;;;;4933378;29;20618;-66
2022/03/24 13:18:08;;;;;;;39.17;22.60;;;17.00;46.00;;;;;;4934735;29;20457;-65
2022/03/24 13:20:36;;;;;;;38.35;21.95;;;17.00;45.90;;;;;;4916745;29;20463;-65
2022/03/24 13:23:04;;;;;;;38.08;20.77;;;17.00;45.30;;;;;;4934880;29;20265;-65
2022/03/24 13:25:30;;;;;;;43.55;20.75;;;17.00;45.00;;;;;;4933062;29;20063;-65
2022/03/24 13:27:57;;;;;;;37.30;20.77;;;17.00;44.80;;;;;;4933805;29;20102;-66
2022/03/24 13:30:27;;;;;;;45.83;27.08;;;17.10;44.40;;;;;;4923632;29;20134;-66
2022/03/24 13:32:56;;;;;;;47.60;27.33;;;17.10;44.40;;;;;;4934743;29;20051;-66
2022/03/24 13:35:24;;;;;;;49.13;26.48;;;17.20;43.90;;;;;;4931749;29;20478;-66
2022/03/24 13:37:59;;;;;;;53.20;29.33;;;17.20;44.40;;;;;;4916222;29;20584;-65
2022/03/24 13:40:30;;;;;;;44.42;28.58;;;17.30;44.20;;;;;;4920433;29;20140;-67
2022/03/24 13:42:57;;;;;;;47.42;28.63;;;17.30;43.50;;;;;;4927066;29;20056;-65
2022/03/24 13:45:23;;;;;;;47.10;30.48;;;17.40;43.60;;;;;;4924558;29;20047;-65
2022/03/24 13:47:51;;;;;;;55.63;32.30;;;17.30;44.30;;;;;;4934656;29;20583;-65
2022/03/24 13:50:23;;;;;;;49.35;31.20;;;17.30;44.60;;;;;;4953340;29;20048;-64
2022/03/24 13:52:51;;;;;;;46.78;29.42;;;17.20;45.00;;;;;;4933390;29;20047;-66
2022/03/24 13:55:27;;;;;;;47.63;31.17;;;17.20;45.20;;;;;;4916525;29;20051;-66
2022/03/24 13:57:57;;;;;;;59.28;32.15;;;17.40;44.30;;;;;;4933212;29;20056;-66
2022/03/24 14:00:45;;;;;;;59.13;32.80;;;17.30;44.50;;;;;;4919915;29;20493;-64
2022/03/24 14:03:17;;;;;;;53.50;31.35;;;17.20;44.60;;;;;;4929157;29;20106;-65
2022/03/24 14:06:00;;;;;;;48.55;30.77;;;17.10;44.90;;;;;;4932955;29;20060;-65
2022/03/24 14:08:36;;;;;;;49.28;30.88;;;17.20;44.80;;;;;;4914567;29;20044;-65
2022/03/24 14:11:05;;;;;;;48.65;30.55;;;17.20;44.60;;;;;;4916435;29;20056;-65
2022/03/24 14:13:40;;;;;;;46.75;28.27;;;17.20;45.00;;;;;;4933838;29;20156;-64
2022/03/24 14:16:32;;;;;;;47.85;29.13;;;17.10;44.90;;;;;;4923276;29;20079;-66
2022/03/24 14:19:03;;;;;;;;;;;17.10;44.60;;;;;;4926790;29;20052;-65
2022/03/24 14:21:42;;;;;;;45.03;25.42;;;17.10;45.10;;;;;;4933787;29;19922;-66
2022/03/24 14:24:09;;;;;;;42.28;25.45;;;17.10;45.20;;;;;;4932952;29;20083;-66
2022/03/24 14:26:35;;;;;;;41.40;25.38;;;17.10;45.40;;;;;;4933260;29;20051;-64
2022/03/24 14:29:15;;;;;;;45.10;25.55;;;17.30;45.50;;;;;;4920379;29;20409;-64
2022/03/24 14:31:41;;;;;;;39.95;22.55;;;17.40;45.10;;;;;;4931573;29;20047;-64
2022/03/24 14:34:15;;;;;;;40.58;19.60;;;17.50;44.40;;;;;;4914366;29;20457;-64
2022/03/24 14:36:47;;;;;;;32.83;19.02;;;17.50;43.10;;;;;;4914072;29;20052;-64
2022/03/24 14:39:14;;;;;;;33.28;20.20;;;17.50;42.60;;;;;;4914425;29;20048;-65
2022/03/24 14:41:41;;;;;;;30.17;20.38;;;17.50;42.10;;;;;;4928203;29;20059;-65
2022/03/24 14:44:08;;;;;;;33.55;21.77;;;17.50;41.70;;;;;;4920548;29;20040;-65
2022/03/24 14:46:38;;;;;;;38.92;22.63;;;17.50;41.30;;;;;;4921457;29;20047;-65
2022/03/24 14:49:05;;;;;;;41.10;24.17;;;17.60;41.20;;;;;;4914007;29;20052;-65
2022/03/24 14:51:35;;;;;;;34.58;21.02;;;17.50;40.40;;;;;;4914378;29;20477;-65
2022/03/24 14:54:01;;;;;;;38.85;21.58;;;17.60;39.20;;;;;;4897689;29;20490;-66
2022/03/24 14:56:27;;;;;;;29.83;20.08;;;17.50;38.10;;;;;;4917675;29;20052;-65
2022/03/24 14:58:55;;;;;;;33.72;21.85;;;17.50;37.40;;;;;;4932577;29;20154;-64
2022/03/24 15:01:21;;;;;;;31.45;20.92;;;17.40;36.90;;;;;;4926126;29;20094;-64
2022/03/24 15:03:47;;;;;;;37.42;21.65;;;17.40;37.10;;;;;;4923289;29;20052;-65
2022/03/24 15:06:13;;;;;;;33.95;21.50;;;17.50;37.20;;;;;;4913605;29;20044;-67
2022/03/24 15:08:40;;;;;;;38.03;23.77;;;17.50;36.30;;;;;;4924739;29;20405;-67
2022/03/24 15:11:07;;;;;;;36.30;24.70;;;17.50;36.00;;;;;;4929128;29;20136;-67
2022/03/24 15:13:33;;;;;;;45.95;26.85;;;17.40;36.40;;;;;;4931819;29;20083;-67
2022/03/24 15:16:07;;;;;;;39.17;24.75;;;17.40;37.20;;;;;;4927352;29;20153;-66
2022/03/24 15:18:36;;;;;;;38.22;27.02;;;17.40;37.30;;;;;;4928696;29;20055;-67